createdAt,value
2023-05-14T00:00:01.083Z,71
2023-05-14T00:04:01.366Z,71
2023-05-14T00:08:01.399Z,71
2023-05-14T00:12:01.231Z,71
2023-05-14T00:16:01.069Z,72
2023-05-14T00:20:01.266Z,72
2023-05-14T00:24:01.008Z,72
2023-05-14T00:28:01.373Z,72
2023-05-14T00:32:01.718Z,73
2023-05-14T00:36:01.224Z,73
2023-05-14T00:40:01.117Z,73
2023-05-14T00:44:01.222Z,76
2023-05-14T00:48:01.158Z,76
2023-05-14T00:52:01.355Z,76
2023-05-14T00:56:01.572Z,76
2023-05-14T01:00:01.548Z,76
2023-05-14T01:04:01.396Z,78
2023-05-14T01:08:04.383Z,78
2023-05-14T01:12:05.000Z,78
2023-05-14T01:16:02.773Z,78
2023-05-14T01:20:01.451Z,78
2023-05-14T01:24:01.222Z,79
2023-05-14T01:28:05.700Z,79
2023-05-14T01:32:05.452Z,79
2023-05-14T01:36:01.238Z,79
2023-05-14T01:40:02.072Z,79
2023-05-14T01:44:01.156Z,79
2023-05-14T01:48:01.341Z,79
2023-05-14T01:52:00.994Z,79
2023-05-14T01:56:01.127Z,79
2023-05-14T02:00:01.312Z,79
2023-05-14T02:04:01.374Z,79
2023-05-14T02:08:01.030Z,79
2023-05-14T02:12:01.287Z,79
2023-05-14T02:16:01.054Z,80
2023-05-14T02:20:01.235Z,80
2023-05-14T02:24:01.025Z,79
2023-05-14T02:28:01.155Z,79
2023-05-14T02:32:01.043Z,79
2023-05-14T02:36:01.164Z,79
2023-05-14T02:40:01.043Z,79
2023-05-14T02:44:01.104Z,79
2023-05-14T02:48:01.069Z,79
2023-05-14T02:52:01.169Z,79
2023-05-14T02:56:01.076Z,79
2023-05-14T03:00:01.525Z,79
2023-05-14T03:04:01.081Z,80
2023-05-14T03:08:01.507Z,80
2023-05-14T03:12:01.086Z,80
2023-05-14T03:16:01.214Z,80
2023-05-14T03:20:01.173Z,80
2023-05-14T03:24:01.168Z,81
2023-05-14T03:28:01.042Z,81
2023-05-14T03:32:01.275Z,81
2023-05-14T03:36:01.065Z,81
2023-05-14T03:40:01.161Z,81
2023-05-14T03:44:01.039Z,82
2023-05-14T03:48:01.259Z,82
2023-05-14T03:52:01.036Z,82
2023-05-14T03:56:01.209Z,82
2023-05-14T04:00:01.026Z,82
2023-05-14T04:04:01.462Z,83
2023-05-14T04:08:01.187Z,83
2023-05-14T04:12:01.281Z,83
2023-05-14T04:16:01.117Z,83
2023-05-14T04:20:01.160Z,83
2023-05-14T04:24:01.009Z,83
2023-05-14T04:28:01.364Z,83
2023-05-14T04:32:01.311Z,83
2023-05-14T04:36:01.212Z,84
2023-05-14T04:40:01.027Z,84
2023-05-14T04:44:02.072Z,84
2023-05-14T04:48:01.522Z,84
2023-05-14T04:52:01.733Z,84
2023-05-14T04:56:01.016Z,84
2023-05-14T05:00:01.252Z,84
2023-05-14T05:04:01.396Z,84
2023-05-14T05:08:01.191Z,84
2023-05-14T05:12:01.173Z,84
2023-05-14T05:16:01.370Z,84
2023-05-14T05:20:01.063Z,84
2023-05-14T05:24:01.259Z,85
2023-05-14T05:28:01.002Z,85
2023-05-14T05:32:01.229Z,85
2023-05-14T05:36:01.016Z,85
2023-05-14T05:40:01.095Z,85
2023-05-14T05:44:01.104Z,86
2023-05-14T05:48:01.293Z,86
2023-05-14T05:52:01.017Z,86
2023-05-14T05:56:01.291Z,87
2023-05-14T06:00:07.426Z,87
2023-05-14T06:04:01.185Z,86
2023-05-14T06:08:01.121Z,86
2023-05-14T06:12:01.280Z,86
2023-05-14T06:16:01.257Z,87
2023-05-14T06:20:01.399Z,87
2023-05-14T06:24:01.037Z,86
2023-05-14T06:28:01.012Z,86
2023-05-14T06:32:01.671Z,86
2023-05-14T06:36:03.449Z,85
2023-05-14T06:40:01.095Z,85
2023-05-14T06:44:01.286Z,84
2023-05-14T06:48:01.175Z,84
2023-05-14T06:52:01.194Z,84
2023-05-14T06:56:01.050Z,82
2023-05-14T07:00:03.890Z,82
2023-05-14T07:04:01.046Z,78
2023-05-14T07:08:01.223Z,78
2023-05-14T07:12:01.011Z,78
2023-05-14T07:16:01.217Z,64
2023-05-14T07:20:01.052Z,64
2023-05-14T07:24:01.362Z,60
2023-05-14T07:28:00.997Z,60
2023-05-14T07:32:01.163Z,60
2023-05-14T07:36:01.104Z,56
2023-05-14T07:40:01.334Z,56
2023-05-14T07:44:01.099Z,53
2023-05-14T07:48:01.431Z,53
2023-05-14T07:52:01.031Z,53
2023-05-14T07:56:01.166Z,51
2023-05-14T08:00:01.165Z,51
2023-05-14T08:04:01.461Z,56
2023-05-14T08:08:01.664Z,56
2023-05-14T08:12:01.313Z,56
2023-05-14T08:16:01.242Z,54
2023-05-14T08:20:02.302Z,54
2023-05-14T08:24:00.979Z,47
2023-05-14T08:28:01.480Z,47
2023-05-14T08:32:15.877Z,45
2023-05-14T08:36:01.093Z,45
2023-05-14T08:40:01.048Z,45
2023-05-14T08:44:06.091Z,42
2023-05-14T08:48:04.861Z,42
2023-05-14T08:52:01.261Z,42
2023-05-14T08:56:02.196Z,42
2023-05-14T09:00:05.566Z,42
2023-05-14T09:04:06.197Z,43
2023-05-14T09:08:01.131Z,43
2023-05-14T09:12:01.258Z,43
2023-05-14T09:16:02.115Z,43
2023-05-14T09:20:01.159Z,43
2023-05-14T09:24:01.281Z,41
2023-05-14T09:28:05.226Z,41
2023-05-14T09:32:04.493Z,41
2023-05-14T09:36:01.369Z,41
2023-05-14T09:40:05.313Z,41
2023-05-14T09:44:01.238Z,42
2023-05-14T09:48:01.787Z,42
2023-05-14T09:52:02.640Z,41
2023-05-14T09:56:01.236Z,41
2023-05-14T10:00:01.146Z,41
2023-05-14T10:04:03.143Z,40
2023-05-14T10:08:03.018Z,40
2023-05-14T10:12:01.351Z,40
2023-05-14T10:16:06.140Z,40
2023-05-14T10:20:01.876Z,40
2023-05-14T10:24:01.592Z,41
2023-05-14T10:28:01.689Z,41
2023-05-14T10:32:04.079Z,40
2023-05-14T10:36:02.489Z,40
2023-05-14T10:40:01.664Z,40
2023-05-14T10:44:07.443Z,39
2023-05-14T10:48:01.351Z,39
2023-05-14T10:52:01.218Z,39
2023-05-14T10:56:03.544Z,38
2023-05-14T11:00:01.435Z,38
2023-05-14T11:04:02.288Z,38
2023-05-14T11:08:03.383Z,38
2023-05-14T11:12:01.219Z,38
2023-05-14T11:16:21.429Z,41
2023-05-14T11:20:01.378Z,41
2023-05-14T11:24:01.295Z,37
2023-05-14T11:28:01.168Z,37
2023-05-14T11:32:01.649Z,37
2023-05-14T11:36:01.264Z,37
2023-05-14T11:40:01.354Z,37
2023-05-14T11:44:02.445Z,36
2023-05-14T11:48:01.184Z,36
2023-05-14T11:52:01.692Z,36
2023-05-14T11:56:02.316Z,37
2023-05-14T12:00:01.253Z,37
2023-05-14T12:04:03.234Z,35
2023-05-14T12:08:01.199Z,35
2023-05-14T12:12:07.340Z,37
2023-05-14T12:16:01.669Z,37
2023-05-14T12:20:01.080Z,37
2023-05-14T12:24:01.444Z,36
2023-05-14T12:28:01.093Z,36
2023-05-14T12:32:03.719Z,38
2023-05-14T12:36:21.020Z,38
2023-05-14T12:40:01.159Z,38
2023-05-14T12:44:02.052Z,37
2023-05-14T12:48:01.207Z,37
2023-05-14T12:56:01.462Z,36
2023-05-14T13:00:01.107Z,36
2023-05-14T13:04:01.147Z,37
2023-05-14T13:08:03.133Z,37
2023-05-14T13:12:01.108Z,37
2023-05-14T13:16:01.096Z,37
2023-05-14T13:20:01.076Z,37
2023-05-14T13:24:01.099Z,35
2023-05-14T13:28:01.165Z,35
2023-05-14T13:32:01.100Z,35
2023-05-14T13:36:01.498Z,36
2023-05-14T13:40:01.254Z,36
2023-05-14T13:44:01.134Z,36
2023-05-14T13:48:01.205Z,36
2023-05-14T13:52:01.110Z,36
2023-05-14T13:56:01.218Z,36
2023-05-14T14:00:01.334Z,36
2023-05-14T14:04:01.364Z,37
2023-05-14T14:08:22.417Z,37
2023-05-14T14:12:02.187Z,37
2023-05-14T14:16:02.641Z,37
2023-05-14T14:20:01.121Z,37
2023-05-14T14:24:01.407Z,36
2023-05-14T14:28:01.181Z,36
2023-05-14T14:32:01.372Z,36
2023-05-14T14:36:01.346Z,37
2023-05-14T14:40:00.988Z,37
2023-05-14T14:44:01.955Z,38
2023-05-14T14:48:10.961Z,38
2023-05-14T14:52:01.139Z,38
2023-05-14T14:56:01.107Z,37
2023-05-14T15:00:02.880Z,37
2023-05-14T15:04:01.019Z,39
2023-05-14T15:08:01.220Z,39
2023-05-14T15:12:01.316Z,39
2023-05-14T15:16:01.285Z,39
2023-05-14T15:20:01.056Z,39
2023-05-14T15:24:02.149Z,39
2023-05-14T15:28:00.989Z,39
2023-05-14T15:32:01.468Z,39
2023-05-14T15:36:01.167Z,39
2023-05-14T15:40:01.261Z,39
2023-05-14T15:44:00.989Z,39
2023-05-14T15:48:01.354Z,39
2023-05-14T15:52:01.925Z,39
2023-05-14T15:56:01.721Z,40
2023-05-14T16:00:01.226Z,40
2023-05-14T16:04:01.228Z,39
2023-05-14T16:08:01.042Z,39
2023-05-14T16:12:01.762Z,39
2023-05-14T16:16:01.290Z,39
2023-05-14T16:20:01.327Z,39
2023-05-14T16:24:01.199Z,41
2023-05-14T16:28:01.123Z,41
2023-05-14T16:32:01.156Z,41
2023-05-14T16:36:01.163Z,40
2023-05-14T16:40:01.037Z,40
2023-05-14T16:44:01.498Z,42
2023-05-14T16:48:01.268Z,42
2023-05-14T16:52:01.277Z,42
2023-05-14T16:56:01.240Z,42
2023-05-14T17:00:05.145Z,42
2023-05-14T17:04:01.170Z,42
2023-05-14T17:08:01.141Z,42
2023-05-14T17:12:01.070Z,42
2023-05-14T17:16:01.361Z,41
2023-05-14T17:20:01.159Z,41
2023-05-14T17:24:01.344Z,42
2023-05-14T17:28:01.397Z,42
2023-05-14T17:32:02.633Z,42
2023-05-14T17:36:01.113Z,42
2023-05-14T17:40:01.190Z,42
2023-05-14T17:44:01.186Z,43
2023-05-14T17:48:01.315Z,43
2023-05-14T17:52:01.105Z,43
2023-05-14T17:56:01.290Z,45
2023-05-14T18:00:01.240Z,45
2023-05-14T18:04:01.881Z,47
2023-05-14T18:08:01.067Z,47
2023-05-14T18:12:01.258Z,47
2023-05-14T18:16:01.208Z,49
2023-05-14T18:20:01.290Z,49
2023-05-14T18:24:01.097Z,51
2023-05-14T18:28:01.148Z,51
2023-05-14T18:32:01.040Z,51
2023-05-14T18:36:01.220Z,51
2023-05-14T18:40:01.318Z,51
2023-05-14T18:44:01.568Z,50
2023-05-14T18:48:01.280Z,50
2023-05-14T18:52:01.165Z,50
2023-05-14T18:56:01.054Z,51
2023-05-14T19:00:01.395Z,51
2023-05-14T19:04:05.288Z,52
2023-05-14T19:08:01.268Z,52
2023-05-14T19:12:01.092Z,52
2023-05-14T19:16:01.378Z,52
2023-05-14T19:20:01.033Z,52
2023-05-14T19:24:01.275Z,54
2023-05-14T19:28:02.673Z,54
2023-05-14T19:32:01.461Z,54
2023-05-14T19:36:01.134Z,55
2023-05-14T19:40:01.340Z,55
2023-05-14T19:44:01.079Z,56
2023-05-14T19:48:01.404Z,56
2023-05-14T19:52:01.010Z,56
2023-05-14T19:56:01.377Z,56
2023-05-14T20:00:01.057Z,56
2023-05-14T20:04:01.553Z,57
2023-05-14T20:08:01.738Z,57
2023-05-14T20:12:01.205Z,57
2023-05-14T20:16:01.026Z,58
2023-05-14T20:20:01.118Z,58
2023-05-14T20:24:01.045Z,59
2023-05-14T20:28:01.056Z,59
2023-05-14T20:32:01.024Z,59
2023-05-14T20:36:03.519Z,59
2023-05-14T20:40:01.739Z,59
2023-05-14T20:44:01.240Z,59
2023-05-14T20:48:01.223Z,59
2023-05-14T20:52:00.966Z,59
2023-05-14T20:56:01.171Z,58
2023-05-14T21:00:01.236Z,58
2023-05-14T21:04:01.500Z,59
2023-05-14T21:08:01.399Z,59
2023-05-14T21:12:01.041Z,59
2023-05-14T21:16:01.277Z,60
2023-05-14T21:20:01.358Z,60
2023-05-14T21:24:01.039Z,60
2023-05-14T21:28:00.994Z,60
2023-05-14T21:32:01.397Z,60
2023-05-14T21:36:01.161Z,60
2023-05-14T21:40:01.171Z,60
2023-05-14T21:44:01.169Z,61
2023-05-14T21:48:01.378Z,61
2023-05-14T21:52:00.969Z,61
2023-05-14T21:56:01.200Z,61
2023-05-14T22:00:01.158Z,61
2023-05-14T22:04:01.208Z,62
2023-05-14T22:08:01.163Z,62
2023-05-14T22:12:01.161Z,62
2023-05-14T22:16:13.152Z,62
2023-05-14T22:20:01.189Z,62
2023-05-14T22:24:00.985Z,63
2023-05-14T22:28:01.003Z,63
2023-05-14T22:32:01.159Z,63
2023-05-14T22:36:01.185Z,63
2023-05-14T22:40:03.963Z,63
2023-05-14T22:44:01.298Z,64
2023-05-14T22:48:01.452Z,64
2023-05-14T22:52:01.070Z,64
2023-05-14T22:56:01.225Z,64
2023-05-14T23:00:01.208Z,64
2023-05-14T23:04:01.078Z,65
2023-05-14T23:08:01.616Z,65
2023-05-14T23:12:01.041Z,65
2023-05-14T23:16:01.404Z,65
2023-05-14T23:20:01.165Z,65
2023-05-14T23:24:01.085Z,65
2023-05-14T23:28:00.962Z,65
2023-05-14T23:32:01.316Z,65
2023-05-14T23:36:01.085Z,66
2023-05-14T23:40:01.153Z,66
2023-05-14T23:44:01.132Z,67
2023-05-14T23:48:01.504Z,67
2023-05-14T23:52:01.334Z,67
2023-05-14T23:56:01.388Z,67
